Acton, CA

10:10 AM PDT on March 30, 2015 (GMT -0700)
Whiteman | | Change Station
CLOSE
Current Station
Airport
Location: San Fernando,
Elevation: 1004 ft
Nearby Weather Stations

Elev 1004 ft 34.26 °N, 118.41 °W | Updated 17 hours ago

Clear
Clear
77 °F
Feels Like 77 °F
N
2
Wind Variable Wind from WNW
Gusts mph

Today
High -- | Low -- °F
--% Chance of Precip.
Yesterday
High -- | Low -- °F
Precip. -- in
6:42 AM 7:12 PM
Waxing Gibbous, 81% visible
Pressure 30.00 in
Visibility 20.0 miles
Clouds Clear
Dew Point 29 °F
Humidity 17%
Rainfall 0.00 in
Snow Depth Not available.
UV 3 out of 12
Pollen 8.80 out of 12
Air Quality Not available.
Flu Activity Not available.
METAR KWHP 292347Z 12007KT 20SM SKC 28/M02 A3000

More Conditions Fewer Conditions

Pressure 30.00 in
Visibility 20.0 miles
Clouds Clear
Dew Point 29 °F
Humidity 17%
Rainfall 0.00 in
Snow Depth Not available.
UV 3 out of 12
Pollen 8.80 out of 12
Air Quality Not available.
Flu Activity Not available.
METAR KWHP 292347Z 12007KT 20SM SKC 28/M02 A3000

More Conditions Fewer Conditions

10-Day Weather Forecast

Almanac

Astronomy

Mar. 30, 2015 Rise Set
Actual Time
Civil Twilight
Nautical Twilight
Astronomical Twilight
Moon
Length of Visible Light
Length of Day
Tomorrow will be .
, % of the Moon is Illuminated

Today's Extremes

State Highs State Lows

Community

WunderPhotos

Upload Photos

1,809,542 photos uploaded!

WunderBlogs® & News

Nearby

Air Quality

  Air Quality AQ Index Pollutant
Not available.

Snow Depth

Station Depth Elevation

Earthquake Activity

City Distance Mag. Time & Date
Minimum magnitude displayed is 2.5.

Coastal Water Temperatures

Place Temperature

Stations

Nearby Weather Stations

Station Location Temp. Windchill Dew Point Humidity Wind Precip. Elev Updated Type